Time;durP1;ratioP1;P1;durP2;ratioP2;P2;SDS_P1;SDS_P2;PMS_P1;PMS_P2;Temp;Humidity;BMP_temperature;BMP_pressure;BME280_temperature;BME280_humidity;BME280_pressure;Samples;Min_cycle;Max_cycle;Signal;HPM_P1;HPM_P2
2022/08/21 00:01:20;;;;;;;4.28;3.88;;;20.60;94.90;;;;;;5065170;28;20411;-73
2022/08/21 00:03:46;;;;;;;5.97;3.75;;;20.60;94.70;;;;;;5061964;28;20048;-73
2022/08/21 00:06:11;;;;;;;3.78;3.35;;;20.60;94.70;;;;;;5065686;28;20552;-73
2022/08/21 00:08:37;;;;;;;7.90;3.75;;;20.50;94.50;;;;;;5067950;28;20138;-72
2022/08/21 00:11:06;;;;;;;4.35;3.40;;;20.50;94.40;;;;;;5075908;28;20061;-71
2022/08/21 00:13:32;;;;;;;4.35;3.05;;;20.50;94.40;;;;;;5066603;28;20622;-71
2022/08/21 00:15:59;;;;;;;3.85;2.67;;;20.40;94.30;;;;;;5063689;28;20085;-71
2022/08/21 00:18:25;;;;;;;4.28;2.92;;;20.30;94.30;;;;;;5066531;28;20064;-71
2022/08/21 00:20:51;;;;;;;6.00;3.33;;;20.30;94.50;;;;;;5069670;28;20051;-72
2022/08/21 00:23:17;;;;;;;4.30;3.05;;;20.30;94.50;;;;;;5062681;28;20063;-71
2022/08/21 00:25:44;;;;;;;6.50;3.35;;;20.20;94.40;;;;;;5066438;28;20024;-71
2022/08/21 00:28:11;;;;;;;5.03;2.90;;;20.20;94.40;;;;;;5072591;28;20039;-73
2022/08/21 00:30:37;;;;;;;3.30;2.97;;;20.10;94.30;;;;;;5078240;28;20061;-73
2022/08/21 00:33:03;;;;;;;4.93;3.05;;;20.00;94.20;;;;;;5071922;28;20048;-73
2022/08/21 00:35:36;;;;;;;5.45;2.80;;;20.00;94.20;;;;;;5069546;28;20038;-73
2022/08/21 00:38:04;;;;;;;3.78;2.88;;;20.00;94.20;;;;;;5074004;28;20056;-73
2022/08/21 00:40:40;;;;;;;5.35;3.03;;;19.90;94.30;;;;;;5081225;28;20707;-70
2022/08/21 00:43:07;;;;;;;;;;;19.80;94.30;;;;;;5068591;28;20060;-71
2022/08/21 00:45:33;;;;;;;6.90;2.90;;;19.80;94.30;;;;;;5071738;28;20325;-70
2022/08/21 00:48:00;;;;;;;3.55;2.63;;;19.80;94.40;;;;;;5070751;28;20072;-68
2022/08/21 00:50:34;;;;;;;3.45;2.70;;;19.70;94.60;;;;;;5068059;28;20815;-70
2022/08/21 00:53:01;;;;;;;2.70;2.50;;;19.80;94.60;;;;;;5064613;28;20476;-69
2022/08/21 00:55:29;;;;;;;3.40;2.72;;;19.70;94.50;;;;;;5065870;28;20024;-68
2022/08/21 00:57:56;;;;;;;5.38;2.42;;;19.80;94.40;;;;;;5062365;28;20661;-70
2022/08/21 01:00:29;;;;;;;6.32;2.90;;;19.80;94.30;;;;;;5063095;28;20126;-70
2022/08/21 01:02:57;;;;;;;4.55;3.00;;;19.80;94.30;;;;;;5060205;28;20259;-69
2022/08/21 01:05:23;;;;;;;3.47;2.28;;;19.70;94.30;;;;;;5059713;28;20111;-70
2022/08/21 01:07:49;;;;;;;4.00;2.35;;;19.80;94.30;;;;;;5065862;28;20032;-71
2022/08/21 01:10:15;;;;;;;5.85;2.35;;;19.70;94.20;;;;;;5068246;28;20121;-69
2022/08/21 01:12:41;;;;;;;2.20;2.00;;;19.70;94.20;;;;;;5068367;28;20028;-70
2022/08/21 01:15:08;;;;;;;2.47;2.28;;;19.70;94.20;;;;;;5067465;28;20036;-70
2022/08/21 01:17:35;;;;;;;3.25;2.33;;;19.70;94.10;;;;;;5072096;28;20056;-70
2022/08/21 01:20:05;;;;;;;2.65;2.10;;;19.60;94.10;;;;;;5066116;28;20029;-70
2022/08/21 01:22:31;;;;;;;5.75;2.38;;;19.60;94.20;;;;;;5066161;28;20025;-70
2022/08/21 01:24:57;;;;;;;2.88;2.05;;;19.60;94.10;;;;;;5068609;28;20753;-70
2022/08/21 01:27:22;;;;;;;6.97;2.08;;;19.50;94.20;;;;;;5072113;28;20564;-70
2022/08/21 01:29:56;;;;;;;3.75;2.30;;;19.40;94.20;;;;;;5068144;28;20028;-70
2022/08/21 01:32:23;;;;;;;5.28;2.33;;;19.40;94.20;;;;;;5073736;28;20472;-70
2022/08/21 01:34:50;;;;;;;3.30;2.10;;;19.50;94.20;;;;;;5072721;28;20038;-70
2022/08/21 01:37:16;;;;;;;3.30;2.15;;;19.40;94.20;;;;;;5064817;28;20048;-70
2022/08/21 01:39:42;;;;;;;3.63;2.20;;;19.40;94.30;;;;;;5071713;28;20090;-70
2022/08/21 01:42:08;;;;;;;5.20;2.47;;;19.40;94.20;;;;;;5060823;28;20024;-70
2022/08/21 01:44:35;;;;;;;4.68;2.40;;;19.40;94.10;;;;;;5076504;28;20028;-70
2022/08/21 01:47:05;;;;;;;8.15;2.03;;;19.30;93.90;;;;;;5071060;28;20039;-70
2022/08/21 01:49:31;;;;;;;4.80;2.30;;;19.30;93.90;;;;;;5067363;28;20134;-71
2022/08/21 01:51:57;;;;;;;2.95;2.25;;;19.30;93.80;;;;;;5068155;28;20115;-70
2022/08/21 01:54:23;;;;;;;5.38;2.20;;;19.20;93.80;;;;;;5075912;28;20041;-70
2022/08/21 01:56:51;;;;;;;5.05;2.05;;;19.20;93.80;;;;;;5067410;28;20036;-70
2022/08/21 01:59:17;;;;;;;2.72;1.88;;;19.20;93.70;;;;;;5067778;28;20047;-70
2022/08/21 02:01:43;;;;;;;4.38;2.05;;;19.20;93.80;;;;;;5064257;28;20025;-70
2022/08/21 02:04:10;;;;;;;4.25;2.17;;;19.10;93.70;;;;;;5080088;28;20153;-70
2022/08/21 02:06:36;;;;;;;3.38;1.80;;;19.10;93.60;;;;;;5072681;28;20024;-71
2022/08/21 02:09:07;;;;;;;2.75;1.92;;;19.00;93.60;;;;;;5071033;28;20036;-70
2022/08/21 02:11:34;;;;;;;5.03;2.20;;;19.00;93.70;;;;;;5066224;28;20553;-70
2022/08/21 02:14:00;;;;;;;2.25;1.83;;;19.00;93.60;;;;;;5067809;28;20563;-70
2022/08/21 02:16:25;;;;;;;6.32;2.20;;;18.90;93.60;;;;;;5074340;28;20040;-70
2022/08/21 02:18:51;;;;;;;4.07;1.90;;;18.90;93.70;;;;;;5068562;28;20028;-70
2022/08/21 02:21:17;;;;;;;5.13;2.03;;;18.90;93.80;;;;;;5062645;28;20029;-71
2022/08/21 02:23:44;;;;;;;3.50;2.05;;;18.90;93.80;;;;;;5071583;28;20038;-70
2022/08/21 02:26:10;;;;;;;2.03;1.50;;;18.90;93.80;;;;;;5074165;28;20032;-70
2022/08/21 02:28:37;;;;;;;4.22;1.88;;;18.90;93.90;;;;;;5069448;28;20036;-70
2022/08/21 02:31:04;;;;;;;3.65;1.60;;;18.80;93.90;;;;;;5068712;28;20036;-70
2022/08/21 02:33:30;;;;;;;6.35;2.30;;;18.80;93.90;;;;;;5066195;28;20032;-70
2022/08/21 02:35:56;;;;;;;4.32;1.75;;;18.80;93.80;;;;;;5064308;28;20036;-71
2022/08/21 02:38:26;;;;;;;6.32;2.00;;;18.80;93.80;;;;;;5065123;28;20042;-71
2022/08/21 02:40:53;;;;;;;2.05;1.70;;;18.80;93.80;;;;;;5066562;28;20032;-70
2022/08/21 02:43:21;;;;;;;6.22;2.17;;;18.80;93.70;;;;;;5071112;28;20035;-70
2022/08/21 02:45:48;;;;;;;5.05;1.85;;;18.70;93.70;;;;;;5069216;28;20036;-70
2022/08/21 02:48:17;;;;;;;4.97;1.83;;;18.70;93.70;;;;;;5068190;28;20079;-70
2022/08/21 02:50:51;;;;;;;2.25;2.05;;;18.70;93.70;;;;;;5066255;28;20040;-70
2022/08/21 02:53:17;;;;;;;3.72;2.00;;;18.70;93.80;;;;;;5071072;28;20039;-70
2022/08/21 02:55:46;;;;;;;2.92;1.63;;;18.70;93.80;;;;;;5062424;28;20036;-70
2022/08/21 02:58:14;;;;;;;3.35;1.90;;;18.70;93.80;;;;;;5064573;28;20047;-70
2022/08/21 03:00:41;;;;;;;5.28;2.10;;;18.70;93.80;;;;;;5074555;28;20663;-70
2022/08/21 03:03:07;;;;;;;3.60;1.73;;;18.70;93.90;;;;;;5071927;28;20032;-70
2022/08/21 03:05:36;;;;;;;3.70;1.75;;;18.70;93.80;;;;;;5074586;28;20143;-70
2022/08/21 03:08:09;;;;;;;2.17;1.50;;;18.70;93.70;;;;;;5066548;28;20056;-70
2022/08/21 03:10:35;;;;;;;3.80;1.90;;;18.70;93.60;;;;;;5070245;28;20046;-70
2022/08/21 03:13:03;;;;;;;4.53;1.50;;;18.70;93.50;;;;;;5066742;28;20068;-70
2022/08/21 03:15:29;;;;;;;2.88;1.45;;;18.70;93.40;;;;;;5066930;28;20472;-70
2022/08/21 03:17:56;;;;;;;3.72;1.83;;;18.70;93.30;;;;;;5067478;28;20043;-70
2022/08/21 03:20:25;;;;;;;4.45;1.63;;;18.70;93.30;;;;;;5071649;28;20571;-70
2022/08/21 03:22:52;;;;;;;5.40;1.55;;;18.60;93.20;;;;;;5069599;28;20465;-70
2022/08/21 03:25:18;;;;;;;3.85;1.77;;;18.70;93.20;;;;;;5069070;28;20037;-70
2022/08/21 03:27:44;;;;;;;4.55;1.70;;;18.60;93.10;;;;;;5066394;28;20032;-70
2022/08/21 03:30:11;;;;;;;2.53;1.45;;;18.60;93.10;;;;;;5067316;28;20036;-70
2022/08/21 03:32:36;;;;;;;4.97;1.60;;;18.60;92.70;;;;;;5067464;28;20488;-70
2022/08/21 03:35:04;;;;;;;4.60;1.40;;;18.60;92.90;;;;;;5066970;28;20120;-70
2022/08/21 03:37:30;;;;;;;6.13;1.75;;;18.50;92.70;;;;;;5064214;28;20530;-70
2022/08/21 03:39:56;;;;;;;2.83;1.33;;;18.50;92.70;;;;;;5073891;28;20032;-70
2022/08/21 03:42:23;;;;;;;2.85;1.52;;;18.50;92.70;;;;;;5071286;28;20017;-70
2022/08/21 03:44:49;;;;;;;5.47;1.67;;;18.50;92.70;;;;;;5067162;28;20031;-70
2022/08/21 03:47:14;;;;;;;7.47;1.77;;;18.50;92.50;;;;;;5073651;28;20047;-70
2022/08/21 03:49:41;;;;;;;5.13;1.40;;;18.50;92.40;;;;;;5064648;28;20036;-70
2022/08/21 03:52:06;;;;;;;6.90;1.88;;;18.50;92.30;;;;;;5070652;28;20044;-70
2022/08/21 03:54:33;;;;;;;3.72;1.48;;;18.50;92.30;;;;;;5070276;28;20143;-70
2022/08/21 03:56:58;;;;;;;5.25;1.95;;;18.40;92.40;;;;;;5069684;28;20036;-70
2022/08/21 03:59:24;;;;;;;8.82;1.95;;;18.40;92.80;;;;;;5072406;28;20088;-70
2022/08/21 04:02:01;;;;;;;4.43;1.58;;;18.30;92.60;;;;;;5068079;28;20032;-70
2022/08/21 04:04:28;;;;;;;3.25;1.42;;;18.20;92.70;;;;;;5069386;28;20105;-70
2022/08/21 04:06:56;;;;;;;3.70;1.80;;;18.20;92.80;;;;;;5068515;28;20094;-70
2022/08/21 04:09:22;;;;;;;1.75;1.30;;;18.10;92.80;;;;;;5066242;28;20033;-70
2022/08/21 04:11:48;;;;;;;6.40;1.83;;;18.10;92.80;;;;;;5068759;28;20385;-70
2022/08/21 04:14:15;;;;;;;3.10;1.40;;;18.10;92.90;;;;;;5062662;28;20033;-69
2022/08/21 04:16:42;;;;;;;3.88;2.03;;;18.00;92.90;;;;;;5078398;28;20032;-70
2022/08/21 04:19:09;;;;;;;3.80;1.67;;;18.00;93.10;;;;;;5069297;28;20799;-70
2022/08/21 04:21:37;;;;;;;5.68;1.90;;;18.00;93.10;;;;;;5069913;28;20028;-70
2022/08/21 04:24:03;;;;;;;4.35;1.77;;;17.90;93.10;;;;;;5069301;28;20072;-70
2022/08/21 04:26:30;;;;;;;2.65;1.58;;;17.90;93.20;;;;;;5065981;28;20131;-70
2022/08/21 04:28:57;;;;;;;3.75;1.35;;;17.90;93.20;;;;;;5065638;28;20024;-70
2022/08/21 04:31:24;;;;;;;3.67;1.58;;;17.80;93.10;;;;;;5065792;28;20089;-70
2022/08/21 04:33:50;;;;;;;5.50;1.70;;;17.90;93.10;;;;;;5064965;28;20035;-70
2022/08/21 04:36:16;;;;;;;4.43;1.92;;;17.80;93.10;;;;;;5069682;28;20451;-70
2022/08/21 04:38:43;;;;;;;3.70;2.10;;;17.80;93.10;;;;;;5069602;28;20047;-70
2022/08/21 04:41:09;;;;;;;2.13;1.73;;;17.80;93.10;;;;;;5065962;28;20103;-70
2022/08/21 04:43:35;;;;;;;3.40;1.55;;;17.80;93.20;;;;;;5072096;28;20123;-70
2022/08/21 04:46:01;;;;;;;2.92;1.30;;;17.80;93.20;;;;;;5065051;28;20036;-70
2022/08/21 04:48:27;;;;;;;4.22;1.50;;;17.90;93.20;;;;;;5067554;28;20036;-70
2022/08/21 04:51:11;;;;;;;5.78;1.58;;;17.90;93.20;;;;;;5066236;28;20024;-70
2022/08/21 04:53:42;;;;;;;5.72;1.77;;;17.90;93.10;;;;;;5074238;28;20039;-70
2022/08/21 04:56:13;;;;;;;6.18;1.45;;;17.90;93.20;;;;;;5076219;28;20047;-70
2022/08/21 04:58:41;;;;;;;5.25;1.77;;;18.00;93.20;;;;;;5071243;28;20028;-70
2022/08/21 05:01:12;;;;;;;2.50;1.25;;;18.00;93.10;;;;;;5072089;28;20232;-70
2022/08/21 05:03:38;;;;;;;6.72;1.60;;;18.10;93.20;;;;;;5065787;28;20028;-70
2022/08/21 05:06:06;;;;;;;7.38;1.80;;;18.10;93.20;;;;;;5073498;28;20063;-70
2022/08/21 05:08:33;;;;;;;3.88;1.30;;;18.10;93.20;;;;;;5070147;28;20039;-70
2022/08/21 05:10:59;;;;;;;3.90;1.20;;;18.20;93.20;;;;;;5070872;28;20028;-70
2022/08/21 05:13:25;;;;;;;2.47;1.42;;;18.20;93.40;;;;;;5077030;28;20400;-69
2022/08/21 05:15:50;;;;;;;3.05;1.30;;;18.20;93.40;;;;;;5076218;28;20035;-69
2022/08/21 05:18:16;;;;;;;4.65;1.48;;;18.30;93.50;;;;;;5074500;28;20032;-70
2022/08/21 05:20:42;;;;;;;5.60;1.48;;;18.30;93.40;;;;;;5071153;28;20066;-69
2022/08/21 05:23:09;;;;;;;3.70;1.55;;;18.30;93.40;;;;;;5065866;28;20029;-69
2022/08/21 05:25:35;;;;;;;2.45;1.30;;;18.40;93.40;;;;;;5068188;28;20107;-69
2022/08/21 05:28:01;;;;;;;2.92;1.50;;;18.40;93.50;;;;;;5067758;28;20036;-70
2022/08/21 05:30:27;;;;;;;2.30;1.60;;;18.50;93.50;;;;;;5065292;28;20476;-70
2022/08/21 05:33:00;;;;;;;3.75;1.40;;;18.50;93.40;;;;;;5069590;28;20037;-70
2022/08/21 05:35:27;;;;;;;3.60;1.23;;;18.60;93.30;;;;;;5071403;28;20032;-70
2022/08/21 05:37:53;;;;;;;2.33;1.35;;;18.60;93.30;;;;;;5073128;28;20033;-70
2022/08/21 05:40:19;;;;;;;6.82;1.52;;;18.70;93.30;;;;;;5079146;28;20121;-70
2022/08/21 05:42:45;;;;;;;2.20;1.50;;;18.70;93.00;;;;;;5071978;28;20021;-70
2022/08/21 05:45:11;;;;;;;5.00;1.73;;;18.80;92.90;;;;;;5066020;28;20025;-70
2022/08/21 05:47:37;;;;;;;7.60;1.60;;;18.80;92.90;;;;;;5068890;28;20047;-70
2022/08/21 05:50:04;;;;;;;4.22;1.67;;;18.90;92.80;;;;;;5067688;28;20036;-70
2022/08/21 05:52:30;;;;;;;4.65;1.13;;;18.90;92.60;;;;;;5084067;28;20756;-70
2022/08/21 05:54:55;;;;;;;8.50;1.98;;;19.00;92.50;;;;;;5072385;28;20024;-70
2022/08/21 05:57:23;;;;;;;3.72;1.95;;;19.00;92.10;;;;;;5071410;28;20119;-70
2022/08/21 05:59:50;;;;;;;4.45;1.60;;;19.10;91.90;;;;;;5067988;28;20128;-70
2022/08/21 06:02:18;;;;;;;2.67;1.50;;;19.10;91.60;;;;;;5069785;28;20047;-70
2022/08/21 06:04:44;;;;;;;3.17;1.35;;;19.20;91.60;;;;;;5071470;28;20035;-69
2022/08/21 06:07:10;;;;;;;4.22;1.27;;;19.20;91.60;;;;;;5072395;28;20036;-70
2022/08/21 06:09:37;;;;;;;4.80;1.38;;;19.30;91.40;;;;;;5074654;28;20496;-70
2022/08/21 06:12:08;;;;;;;4.38;1.70;;;19.40;90.90;;;;;;5069314;28;20040;-70
2022/08/21 06:14:35;;;;;;;5.38;1.27;;;19.40;90.80;;;;;;5068519;28;20143;-69
2022/08/21 06:17:06;;;;;;;3.45;1.42;;;19.50;90.90;;;;;;5067634;28;20028;-69
2022/08/21 06:19:32;;;;;;;4.32;1.42;;;19.50;90.60;;;;;;5077752;28;20024;-69
2022/08/21 06:21:58;;;;;;;5.15;1.42;;;19.60;90.40;;;;;;5064784;28;20033;-69
2022/08/21 06:24:25;;;;;;;5.88;1.52;;;19.60;89.80;;;;;;5064446;28;20116;-69
2022/08/21 06:26:50;;;;;;;4.15;1.38;;;19.70;89.80;;;;;;5067054;28;20056;-69
2022/08/21 06:29:17;;;;;;;4.95;1.88;;;19.70;89.20;;;;;;5070994;28;20052;-68
2022/08/21 06:31:43;;;;;;;4.57;1.40;;;19.80;89.40;;;;;;5075021;28;20466;-69
2022/08/21 06:34:10;;;;;;;4.53;1.40;;;19.90;88.50;;;;;;5069753;28;20894;-69
2022/08/21 06:36:36;;;;;;;2.47;1.17;;;19.90;88.20;;;;;;5067625;28;20028;-69
2022/08/21 06:39:03;;;;;;;3.47;1.50;;;19.90;88.60;;;;;;5066957;28;20036;-69
2022/08/21 06:41:28;;;;;;;4.00;1.20;;;20.00;87.90;;;;;;5064891;28;20043;-69
2022/08/21 06:43:55;;;;;;;3.50;1.55;;;20.10;86.40;;;;;;5062882;28;20140;-68
2022/08/21 06:46:23;;;;;;;4.40;1.60;;;20.10;87.20;;;;;;5068412;28;20032;-69
2022/08/21 06:48:49;;;;;;;3.33;1.40;;;20.20;87.20;;;;;;5078406;28;20039;-69
2022/08/21 06:51:15;;;;;;;3.05;1.50;;;20.30;87.10;;;;;;5074972;28;20032;-69
2022/08/21 06:53:41;;;;;;;2.38;1.15;;;20.30;86.70;;;;;;5077642;28;20473;-69
2022/08/21 06:56:07;;;;;;;3.70;1.70;;;20.40;86.40;;;;;;5066516;28;20127;-69
2022/08/21 06:58:33;;;;;;;7.70;1.60;;;20.50;86.30;;;;;;5065879;28;20027;-70
2022/08/21 07:00:59;;;;;;;5.28;1.60;;;20.50;85.70;;;;;;5065247;28;20031;-69
2022/08/21 07:03:28;;;;;;;2.03;1.00;;;20.60;85.60;;;;;;5060919;28;20115;-69
2022/08/21 07:05:56;;;;;;;3.17;1.20;;;20.70;86.00;;;;;;5070811;28;20051;-69
2022/08/21 07:08:22;;;;;;;3.05;1.70;;;20.70;85.50;;;;;;5077035;28;20118;-69
2022/08/21 07:10:48;;;;;;;5.05;1.42;;;20.80;85.20;;;;;;5074651;28;20036;-69
2022/08/21 07:13:15;;;;;;;3.58;1.33;;;20.90;85.20;;;;;;5069332;28;20086;-69
2022/08/21 07:15:41;;;;;;;1.63;1.00;;;21.00;85.20;;;;;;5076682;28;20451;-69
2022/08/21 07:18:06;;;;;;;4.88;1.40;;;21.10;84.20;;;;;;5063754;28;20047;-69
2022/08/21 07:20:33;;;;;;;4.60;1.10;;;21.20;83.20;;;;;;5066439;28;20119;-69
2022/08/21 07:23:02;;;;;;;2.60;1.20;;;21.30;82.80;;;;;;5060892;28;20024;-69
2022/08/21 07:25:28;;;;;;;6.47;1.15;;;21.30;81.60;;;;;;5072055;28;20028;-69
2022/08/21 07:27:54;;;;;;;2.42;1.02;;;21.40;81.00;;;;;;5071187;28;20047;-69
2022/08/21 07:30:20;;;;;;;4.65;1.40;;;21.40;81.50;;;;;;5072159;28;20040;-68
2022/08/21 07:32:48;;;;;;;2.75;1.10;;;21.50;81.30;;;;;;5067002;28;20046;-68
2022/08/21 07:35:15;;;;;;;2.75;1.05;;;21.60;80.70;;;;;;5082032;28;20089;-69
2022/08/21 07:37:40;;;;;;;6.18;1.52;;;21.60;80.70;;;;;;5064282;28;20029;-69
2022/08/21 07:40:07;;;;;;;2.60;1.10;;;21.70;80.10;;;;;;5070112;28;20156;-68
2022/08/21 07:42:33;;;;;;;4.90;1.45;;;21.80;79.20;;;;;;5065324;28;20827;-69
2022/08/21 07:44:58;;;;;;;3.75;1.40;;;21.90;79.10;;;;;;5069651;28;20020;-70
2022/08/21 07:47:24;;;;;;;3.25;1.30;;;21.90;77.00;;;;;;5070173;28;20055;-70
2022/08/21 07:49:50;;;;;;;4.18;1.10;;;22.00;76.70;;;;;;5072475;28;20036;-69
2022/08/21 07:52:16;;;;;;;2.10;1.20;;;22.00;76.60;;;;;;5066641;28;20040;-70
2022/08/21 07:54:41;;;;;;;3.28;1.10;;;22.00;74.60;;;;;;5064261;28;20489;-70
2022/08/21 07:57:07;;;;;;;4.28;1.05;;;22.00;75.20;;;;;;5063927;28;20044;-70
2022/08/21 07:59:33;;;;;;;4.80;0.98;;;22.00;75.10;;;;;;5070370;28;20090;-70
2022/08/21 08:01:59;;;;;;;2.83;1.15;;;22.10;75.00;;;;;;5065744;28;20063;-70
2022/08/21 08:04:24;;;;;;;4.85;1.13;;;22.20;73.80;;;;;;5071629;28;21018;-70
2022/08/21 08:06:50;;;;;;;2.17;0.73;;;22.30;73.60;;;;;;5068593;28;20051;-69
2022/08/21 08:09:16;;;;;;;4.00;1.38;;;22.40;73.30;;;;;;5068345;28;20037;-69
2022/08/21 08:11:43;;;;;;;2.92;1.05;;;22.50;71.40;;;;;;5066373;28;20039;-69
2022/08/21 08:14:10;;;;;;;3.85;1.00;;;22.50;71.40;;;;;;5063915;28;20480;-70
2022/08/21 08:16:36;;;;;;;1.63;0.90;;;22.60;70.80;;;;;;5065511;28;20024;-69
2022/08/21 08:19:03;;;;;;;3.83;1.00;;;22.70;71.50;;;;;;5059525;28;20094;-69
2022/08/21 08:21:33;;;;;;;2.92;1.02;;;22.70;70.50;;;;;;5069417;28;20031;-70
2022/08/21 08:23:59;;;;;;;5.15;1.00;;;22.80;71.20;;;;;;5066894;28;20024;-70
2022/08/21 08:26:25;;;;;;;2.83;0.85;;;22.90;70.20;;;;;;5068199;28;20024;-70
2022/08/21 08:28:51;;;;;;;3.10;0.82;;;23.00;68.90;;;;;;5064591;28;20037;-70
2022/08/21 08:31:16;;;;;;;2.90;1.10;;;23.10;67.90;;;;;;5065178;28;20041;-69
2022/08/21 08:33:42;;;;;;;6.82;1.00;;;23.20;68.30;;;;;;5061450;28;20040;-70
2022/08/21 08:36:16;;;;;;;7.03;1.52;;;23.20;68.50;;;;;;5064347;28;20043;-70
2022/08/21 08:38:41;;;;;;;4.43;1.00;;;23.30;67.20;;;;;;5065650;28;20309;-69
2022/08/21 08:41:12;;;;;;;3.00;1.10;;;23.30;67.40;;;;;;5067786;28;20033;-69
2022/08/21 08:43:40;;;;;;;5.22;1.10;;;23.30;67.40;;;;;;5068070;28;20028;-69
2022/08/21 08:46:12;;;;;;;5.63;1.33;;;23.30;66.00;;;;;;5064763;28;20032;-69
2022/08/21 08:48:59;;;;;;;3.25;1.30;;;23.40;66.10;;;;;;5065107;28;20032;-69
2022/08/21 08:51:48;;;;;;;5.72;1.05;;;23.40;64.30;;;;;;5065587;28;20816;-70
2022/08/21 08:54:25;;;;;;;1.50;0.90;;;23.40;65.30;;;;;;5065832;28;20598;-69
2022/08/21 08:56:52;;;;;;;2.50;1.10;;;23.50;65.80;;;;;;5064243;28;20040;-69
2022/08/21 08:59:36;;;;;;;3.22;1.00;;;23.60;64.40;;;;;;5078147;28;20119;-69
2022/08/21 09:02:02;;;;;;;2.05;0.95;;;23.60;64.00;;;;;;5075160;28;20028;-69
2022/08/21 09:04:29;;;;;;;3.80;1.20;;;23.60;64.50;;;;;;5071193;28;20035;-69
2022/08/21 09:07:28;;;;;;;7.75;1.40;;;23.70;65.20;;;;;;5067988;28;20025;-70
2022/08/21 09:10:27;;;;;;;8.88;1.17;;;23.70;64.50;;;;;;5073526;28;20711;-69
2022/08/21 09:13:05;;;;;;;7.72;1.17;;;23.80;62.80;;;;;;5074188;28;20056;-69
2022/08/21 09:15:53;;;;;;;5.30;1.33;;;23.70;62.00;;;;;;5075445;28;20035;-69
2022/08/21 09:19:00;;;;;;;3.65;1.13;;;23.80;63.60;;;;;;5074933;28;20029;-69
2022/08/21 09:21:38;;;;;;;2.08;1.10;;;23.80;62.60;;;;;;5072904;28;20032;-69
2022/08/21 09:24:16;;;;;;;3.20;1.05;;;23.90;60.90;;;;;;5072679;28;20054;-70
2022/08/21 09:27:06;;;;;;;4.22;1.27;;;23.90;60.60;;;;;;5075567;28;20134;-70
2022/08/21 09:29:37;;;;;;;3.70;1.33;;;23.90;62.10;;;;;;5076303;28;20020;-70
2022/08/21 09:32:18;;;;;;;5.82;1.58;;;24.00;61.70;;;;;;5075114;28;20307;-70
2022/08/21 09:35:15;;;;;;;5.32;1.33;;;24.10;59.70;;;;;;5076352;28;20263;-69
2022/08/21 09:37:52;;;;;;;7.57;1.15;;;24.00;60.70;;;;;;5077419;28;20395;-70
2022/08/21 09:40:30;;;;;;;4.07;0.90;;;24.10;60.60;;;;;;5085300;28;20024;-69
2022/08/21 09:43:03;;;;;;;5.30;1.10;;;24.10;59.20;;;;;;5077180;28;20462;-69
2022/08/21 09:45:31;;;;;;;1.33;0.85;;;24.10;60.20;;;;;;5078730;28;20112;-69
2022/08/21 09:48:17;;;;;;;5.85;1.08;;;24.20;58.50;;;;;;5080667;28;20039;-70
2022/08/21 09:50:44;;;;;;;3.60;1.15;;;24.20;58.50;;;;;;5064254;28;20044;-69
2022/08/21 09:53:23;;;;;;;3.22;1.10;;;24.20;58.30;;;;;;5065984;28;20111;-69
2022/08/21 09:58:37;;;;;;;6.03;1.42;;;24.30;59.30;;;;;;5073583;28;20949;-69
2022/08/21 10:01:05;;;;;;;2.90;1.10;;;24.30;59.40;;;;;;5067937;28;20028;-70
2022/08/21 10:03:31;;;;;;;3.08;1.10;;;24.40;57.50;;;;;;5066604;28;20039;-70
2022/08/21 10:06:09;;;;;;;8.02;1.20;;;24.40;57.50;;;;;;5069546;28;20028;-70
2022/08/21 10:08:37;;;;;;;4.05;1.40;;;24.50;59.80;;;;;;5062600;28;20661;-69
2022/08/21 10:11:10;;;;;;;3.40;1.20;;;24.60;58.90;;;;;;5063631;28;20128;-70
2022/08/21 10:13:51;;;;;;;2.78;1.15;;;24.70;57.50;;;;;;5066395;28;20065;-69
2022/08/21 10:16:35;;;;;;;3.58;1.20;;;24.70;56.60;;;;;;5081542;28;20044;-69
2022/08/21 10:19:03;;;;;;;1.50;0.90;;;24.70;57.20;;;;;;5073405;28;20044;-70
2022/08/21 10:21:35;;;;;;;3.63;1.15;;;24.70;56.20;;;;;;5071138;28;20942;-70
2022/08/21 10:24:06;;;;;;;4.63;1.33;;;24.70;57.20;;;;;;5071659;28;20032;-70
2022/08/21 10:26:45;;;;;;;4.05;1.30;;;24.80;55.50;;;;;;5066376;28;20131;-70
2022/08/21 10:29:44;;;;;;;5.93;1.38;;;24.80;55.60;;;;;;5066075;28;20055;-70
2022/08/21 10:32:10;;;;;;;3.83;1.20;;;24.80;56.80;;;;;;5074680;28;20050;-69
2022/08/21 10:35:08;;;;;;;2.67;1.15;;;24.80;55.50;;;;;;5075793;28;20055;-70
2022/08/21 10:38:04;;;;;;;3.55;1.10;;;24.80;55.20;;;;;;5080204;28;20035;-69
2022/08/21 10:40:37;;;;;;;5.20;1.27;;;24.80;55.60;;;;;;5070551;28;20119;-69
2022/08/21 10:43:08;;;;;;;3.50;1.23;;;24.90;55.70;;;;;;5066526;28;20049;-69
2022/08/21 10:45:43;;;;;;;5.50;1.40;;;24.90;55.50;;;;;;5065523;28;20365;-69
2022/08/21 10:48:28;;;;;;;5.78;1.98;;;25.00;55.10;;;;;;5072718;28;20032;-70
2022/08/21 10:51:17;;;;;;;3.63;1.20;;;25.10;55.70;;;;;;5065676;28;20036;-70
2022/08/21 10:54:11;;;;;;;3.35;1.33;;;25.10;54.80;;;;;;5069635;28;20111;-70
2022/08/21 10:56:41;;;;;;;3.45;1.20;;;25.20;55.90;;;;;;5068485;28;20036;-70
2022/08/21 10:59:34;;;;;;;3.13;1.17;;;25.30;53.60;;;;;;5067758;28;20089;-70
2022/08/21 11:02:15;;;;;;;3.28;1.27;;;25.30;55.00;;;;;;5073718;28;20028;-69
2022/08/21 11:05:10;;;;;;;5.82;1.60;;;25.40;55.30;;;;;;5064989;28;20028;-70
2022/08/21 11:07:45;;;;;;;2.58;0.90;;;25.40;54.50;;;;;;5054877;28;20098;-69
2022/08/21 11:10:24;;;;;;;6.20;1.20;;;25.40;57.30;;;;;;5065978;28;20044;-70
2022/08/21 11:13:24;;;;;;;5.68;1.30;;;25.50;55.40;;;;;;5070373;28;20055;-69
2022/08/21 11:16:22;;;;;;;3.28;1.10;;;25.60;55.60;;;;;;5069051;28;20028;-70
2022/08/21 11:18:58;;;;;;;3.50;1.05;;;25.80;54.70;;;;;;5068608;28;20044;-70
2022/08/21 11:21:26;;;;;;;4.72;1.25;;;25.80;53.70;;;;;;5067160;28;20078;-70
2022/08/21 11:24:23;;;;;;;3.83;1.08;;;25.90;53.70;;;;;;5064475;28;20707;-69
2022/08/21 11:27:01;;;;;;;;;;;25.90;52.50;;;;;;5063494;28;20432;-71
2022/08/21 11:29:32;;;;;;;3.95;1.10;;;26.00;50.90;;;;;;5067478;28;19984;-70
2022/08/21 11:32:40;;;;;;;6.15;1.38;;;26.00;52.40;;;;;;5068626;28;20037;-69
2022/08/21 11:35:27;;;;;;;7.20;0.88;;;26.10;52.00;;;;;;5068495;28;20032;-69
2022/08/21 11:38:14;;;;;;;5.90;1.30;;;26.10;52.10;;;;;;5066097;28;20760;-69
2022/08/21 11:41:01;;;;;;;4.00;1.17;;;26.20;51.60;;;;;;5064626;28;20466;-69
2022/08/21 11:43:36;;;;;;;3.88;1.20;;;26.10;51.70;;;;;;5066784;28;20028;-70
2022/08/21 11:46:36;;;;;;;4.45;1.45;;;26.00;51.90;;;;;;5062728;28;20105;-70
2022/08/21 11:49:14;;;;;;;4.00;1.27;;;26.00;52.60;;;;;;5069736;28;20991;-69
2022/08/21 11:52:08;;;;;;;4.88;1.70;;;26.10;51.20;;;;;;5070049;28;20461;-69
2022/08/21 11:54:45;;;;;;;3.08;1.15;;;26.20;51.40;;;;;;5060358;28;20040;-70
2022/08/21 11:57:25;;;;;;;4.35;1.65;;;26.20;51.60;;;;;;5075762;28;20088;-70
2022/08/21 12:00:09;;;;;;;4.07;1.35;;;26.30;51.10;;;;;;5074109;28;20108;-70
2022/08/21 12:02:49;;;;;;;3.08;1.30;;;26.30;51.00;;;;;;5070247;28;20028;-69
2022/08/21 12:05:40;;;;;;;5.03;1.50;;;26.40;52.00;;;;;;5068313;28;20032;-70
2022/08/21 12:08:26;;;;;;;3.58;1.50;;;26.30;49.90;;;;;;5070012;28;20412;-69
2022/08/21 12:11:04;;;;;;;2.92;1.17;;;26.30;50.40;;;;;;5067849;28;20456;-70
2022/08/21 12:13:33;;;;;;;5.32;1.40;;;26.30;50.40;;;;;;5070616;28;20039;-69
2022/08/21 12:16:09;;;;;;;8.07;1.35;;;26.30;50.50;;;;;;5070724;28;20130;-69
2022/08/21 12:18:37;;;;;;;7.95;1.80;;;26.40;50.50;;;;;;5065252;28;20446;-69
2022/08/21 12:21:24;;;;;;;5.72;1.13;;;26.40;51.50;;;;;;5070570;28;20055;-69
2022/08/21 12:24:01;;;;;;;6.28;1.50;;;26.40;51.10;;;;;;5061401;28;20029;-69
2022/08/21 12:26:49;;;;;;;5.70;1.52;;;26.40;49.50;;;;;;5070979;28;20039;-69
2022/08/21 12:29:26;;;;;;;6.38;1.33;;;26.40;49.90;;;;;;5069084;28;20037;-69
2022/08/21 12:32:05;;;;;;;3.88;1.30;;;26.30;50.00;;;;;;5075368;28;20081;-69
2022/08/21 12:34:52;;;;;;;5.20;1.17;;;26.20;50.30;;;;;;5067015;28;20043;-69
2022/08/21 12:37:31;;;;;;;3.92;1.20;;;26.30;50.00;;;;;;5065084;28;20400;-69
2022/08/21 12:40:00;;;;;;;3.50;1.23;;;26.20;50.50;;;;;;5064490;28;20082;-70
2022/08/21 12:42:46;;;;;;;3.78;1.23;;;26.10;51.30;;;;;;5065776;28;20047;-69
2022/08/21 12:45:30;;;;;;;4.65;1.00;;;26.00;52.10;;;;;;5073598;28;20514;-70
2022/08/21 12:47:58;;;;;;;4.53;1.30;;;25.90;51.80;;;;;;5066887;28;20036;-69
2022/08/21 12:50:29;;;;;;;4.13;1.20;;;25.80;51.30;;;;;;5068893;28;20763;-69
2022/08/21 12:53:07;;;;;;;2.70;1.15;;;25.50;49.80;;;;;;5068133;28;20063;-69
2022/08/21 12:55:34;;;;;;;6.65;1.60;;;25.40;52.50;;;;;;5068165;28;20028;-69
2022/08/21 12:58:00;;;;;;;4.47;1.40;;;25.30;52.40;;;;;;5062863;28;20029;-69
2022/08/21 13:00:28;;;;;;;6.72;1.35;;;25.20;52.40;;;;;;5069793;28;20020;-69
2022/08/21 13:02:56;;;;;;;2.47;1.48;;;25.10;53.80;;;;;;5064537;28;20244;-69
2022/08/21 13:05:36;;;;;;;2.83;1.20;;;25.10;54.20;;;;;;5070208;28;20035;-69
2022/08/21 13:08:08;;;;;;;2.75;1.10;;;25.00;53.30;;;;;;5070720;28;20044;-70
2022/08/21 13:10:36;;;;;;;5.65;1.55;;;25.00;54.60;;;;;;5072822;28;20040;-69